首页
METAR-TAF:

METAR-TAF

机场 :

La Crosse, 威斯康辛州, 美国

纬度: 43-52-46N, 经度: 091-15-24W, 海拔: 199米

当前天气观测

该预报发布于1小时和3分钟前的19:53 UTC
风速8节,风向西,在西南西北之间变化
温度 26°C
湿度 39%
气压 1015 hPa
能見度: 16.1公里
少量云层高于6000英尺

METAR: KLSE 231953Z 27008KT 230V310 10SM FEW060 26/11 A2998 RMK AO2 SLP144 T02610106

时间: 15:56 (20:56 UTC)

预报

该预报发布于3小时和36分钟前的17:20 UTC
预报有效从23日的 18点(UTC)到 24日的 18点(UTC)
风速6节,风向西
能見度: 10公里
天空无云
从 24日的 0100点(UTC)
风速3节,风向多变
能見度: 10公里
天空无云
从 24日的 1300点(UTC)
风速8节,风向
能見度: 10公里
散云层高于25000英尺

TAF: KLSE 231720Z 2318/2418 27006KT P6SM SKC FM240100 VRB03KT P6SM SKC FM241300 19008KT P6SM SCT250

超过4000个机场的气象观测和天气预报(METAR&TAF报告)。

可查询的气象台以黄色和红色小点在地图上表示。

将鼠标移到小点上方,可查看气象台名称。

然后点击查看天气观测和预报。

如需切换地图:点击带黑十字的绿色按钮放大地图;点击带横线的绿色按钮缩小地图;或者点击绿色箭头查看邻近地区的地图。


METAR-TAF: